Time;durP1;ratioP1;P1;durP2;ratioP2;P2;SDS_P1;SDS_P2;PMS_P1;PMS_P2;Temp;Humidity;BMP_temperature;BMP_pressure;BME280_temperature;BME280_humidity;BME280_pressure;Samples;Min_cycle;Max_cycle;Signal;HPM_P1;HPM_P2
2022/02/21 00:01:40;;;;;;;;;;;7.00;99.90;;;;;;5046627;28;19925;-84
2022/02/21 00:04:09;;;;;;;;;;;5.80;99.90;;;;;;5047405;28;19925;-82
2022/02/21 00:06:44;;;;;;;;;;;5.90;99.90;;;;;;5031625;28;19937;-81
2022/02/21 00:09:13;;;;;;;;;;;5.70;99.90;;;;;;5028746;28;19937;-84
2022/02/21 00:11:42;;;;;;;;;;;5.70;99.90;;;;;;5028821;28;20383;-83
2022/02/21 00:14:11;;;;;;;;;;;5.60;99.90;;;;;;5013308;28;19925;-82
2022/02/21 00:16:41;;;;;;;;;;;5.60;99.90;;;;;;5028759;28;19931;-82
2022/02/21 00:19:11;;;;;;;;;;;5.80;99.90;;;;;;5037862;28;19962;-82
2022/02/21 00:21:39;;;;;;;;;;;6.30;99.90;;;;;;5038063;28;19932;-81
2022/02/21 00:24:08;;;;;;;;;;;5.70;99.90;;;;;;5026020;28;19929;-83
2022/02/21 00:26:36;;;;;;;;;;;6.30;99.90;;;;;;5043759;28;19936;-81
2022/02/21 00:29:07;;;;;;;;;;;5.80;99.90;;;;;;5042171;28;19929;-82
2022/02/21 00:31:36;;;;;;;;;;;5.60;99.90;;;;;;5044572;28;19937;-81
2022/02/21 00:34:05;;;;;;;;;;;5.70;99.90;;;;;;5028975;28;19928;-82
2022/02/21 00:36:33;;;;;;;;;;;5.70;99.90;;;;;;5028735;28;20020;-82
2022/02/21 00:39:03;;;;;;;;;;;5.70;99.90;;;;;;5046285;28;19925;-82
2022/02/21 00:41:32;;;;;;;;;;;5.60;99.90;;;;;;5046795;28;19925;-83
2022/02/21 00:43:59;;;;;;;;;;;5.70;99.90;;;;;;5035423;28;19925;-82
2022/02/21 00:46:28;;;;;;;;;;;5.00;99.90;;;;;;5030512;28;19925;-81
2022/02/21 00:48:57;;;;;;;;;;;5.60;99.90;;;;;;5044263;28;19925;-82
2022/02/21 00:51:26;;;;;;;;;;;5.50;99.90;;;;;;5032358;28;19937;-83
2022/02/21 00:53:54;;;;;;;;;;;5.70;99.90;;;;;;5027082;28;19940;-83
2022/02/21 00:56:22;;;;;;;;;;;5.60;99.90;;;;;;5046057;28;19929;-83
2022/02/21 00:58:50;;;;;;;;;;;5.80;99.90;;;;;;5045752;28;19925;-82
2022/02/21 01:01:18;;;;;;;;;;;5.60;99.90;;;;;;5030930;28;19925;-82
2022/02/21 01:03:49;;;;;;;;;;;4.40;99.90;;;;;;5021284;28;19932;-83
2022/02/21 01:06:19;;;;;;;;;;;4.20;99.90;;;;;;5026117;28;20274;-80
2022/02/21 01:08:48;;;;;;;;;;;5.70;99.90;;;;;;5029601;28;19930;-81
2022/02/21 01:11:16;;;;;;;;;;;5.70;99.90;;;;;;5008586;28;19929;-82
2022/02/21 01:13:44;;;;;;;;;;;6.00;99.90;;;;;;5024319;28;19932;-81
2022/02/21 01:16:13;;;;;;;;;;;5.90;99.90;;;;;;5027209;28;19931;-82
2022/02/21 01:18:41;;;;;;;;;;;5.90;99.90;;;;;;5007380;28;19933;-83
2022/02/21 01:21:12;;;;;;;;;;;5.80;99.90;;;;;;5007166;28;19932;-81
2022/02/21 01:23:40;;;;;;;;;;;6.00;99.90;;;;;;5023815;28;19929;-83
2022/02/21 01:26:10;;;;;;;;;;;5.80;99.90;;;;;;5023882;28;20405;-82
2022/02/21 01:28:37;;;;;;;;;;;6.00;99.90;;;;;;5021983;28;19937;-81
2022/02/21 01:31:06;;;;;;;;;;;6.40;99.90;;;;;;4990441;28;19933;-82
2022/02/21 01:33:34;;;;;;;;;;;5.60;99.90;;;;;;5024458;28;20319;-81
2022/02/21 01:36:02;;;;;;;;;;;5.70;99.90;;;;;;5006527;28;19929;-81
2022/02/21 01:38:29;;;;;;;;;;;5.70;99.90;;;;;;5019679;28;19932;-81
2022/02/21 01:40:57;;;;;;;;;;;5.70;99.90;;;;;;5022944;28;19935;-81
2022/02/21 01:43:25;;;;;;;;;;;5.70;99.90;;;;;;5006925;28;19925;-81
2022/02/21 01:45:54;;;;;;;;;;;4.90;99.90;;;;;;5024796;28;19932;-82
2022/02/21 01:48:22;;;;;;;;;;;5.80;99.90;;;;;;5006932;28;19945;-82
2022/02/21 01:50:50;;;;;;;;;;;5.70;99.90;;;;;;5005950;28;20441;-82
2022/02/21 01:53:19;;;;;;;;;;;5.90;99.90;;;;;;5005091;28;19932;-80
2022/02/21 01:55:50;;;;;;;;;;;5.60;99.90;;;;;;5028827;28;20241;-81
2022/02/21 01:58:21;;;;;;;;;;;5.70;99.90;;;;;;5003608;28;20319;-80
2022/02/21 02:00:51;;;;;;;;;;;5.70;99.90;;;;;;5008631;28;19948;-81
2022/02/21 02:03:21;;;;;;;;;;;5.70;99.90;;;;;;5017070;28;19929;-79
2022/02/21 02:05:50;;;;;;;;;;;5.70;99.90;;;;;;4996222;28;19926;-82
2022/02/21 02:08:18;;;;;;;;;;;5.80;99.90;;;;;;5018191;28;19926;-83
2022/02/21 02:10:47;;;;;;;;;;;5.80;99.90;;;;;;5023125;28;20402;-83
2022/02/21 02:13:15;;;;;;;;;;;5.80;99.90;;;;;;4988781;28;19925;-82
2022/02/21 02:15:43;;;;;;;;;;;5.80;99.90;;;;;;5005182;28;19930;-82
2022/02/21 02:18:12;;;;;;;;;;;5.80;99.90;;;;;;5022733;28;19936;-82
2022/02/21 02:20:40;;;;;;;;;;;5.80;99.90;;;;;;5020716;28;19926;-81
2022/02/21 02:23:08;;;;;;;;;;;5.90;99.90;;;;;;5021582;28;19936;-82
2022/02/21 02:25:36;;;;;;;;;;;5.80;99.90;;;;;;5004929;28;19934;-83
2022/02/21 02:28:05;;;;;;;;;;;5.90;99.90;;;;;;5024174;28;19929;-81
2022/02/21 02:30:34;;;;;;;;;;;5.80;99.90;;;;;;5024452;28;19930;-82
2022/02/21 02:33:02;;;;;;;;;;;5.80;99.90;;;;;;4990426;28;19929;-80
2022/02/21 02:35:32;;;;;;;;;;;5.80;99.90;;;;;;4990155;28;19929;-83
2022/02/21 02:38:04;;;;;;;;;;;7.40;99.90;;;;;;5007325;28;19929;-82
2022/02/21 02:40:34;;;;;;;;;;;5.80;99.90;;;;;;5005946;28;19935;-82
2022/02/21 02:43:02;;;;;;;;;;;5.70;99.90;;;;;;5004094;28;20009;-83
2022/02/21 02:45:30;;;;;;;;;;;5.70;99.90;;;;;;5005692;28;19926;-82
2022/02/21 02:47:58;;;;;;;;;;;5.60;99.90;;;;;;5016753;28;20534;-82
2022/02/21 02:50:27;;;;;;;;;;;5.20;99.90;;;;;;5006817;28;20412;-82
2022/02/21 02:52:54;;;;;;;;;;;5.50;99.90;;;;;;5008379;28;19930;-81
2022/02/21 02:55:22;;;;;;;;;;;5.40;99.90;;;;;;5011402;28;19953;-81
2022/02/21 02:57:51;;;;;;;;;;;5.40;99.90;;;;;;5018361;28;19929;-81
2022/02/21 03:00:20;;;;;;;;;;;5.40;99.90;;;;;;5011365;28;19925;-80
2022/02/21 03:02:47;;;;;;;;;;;5.40;99.90;;;;;;5046166;28;19937;-82
2022/02/21 03:05:15;;;;;;;;;;;5.30;99.90;;;;;;5032602;28;19925;-81
2022/02/21 03:07:43;;;;;;;;;;;5.40;99.90;;;;;;5032556;28;19925;-83
2022/02/21 03:10:11;;;;;;;;;;;5.30;99.90;;;;;;5033567;28;19932;-82
2022/02/21 03:12:39;;;;;;;;;;;5.40;99.90;;;;;;5034312;28;19931;-81
2022/02/21 03:15:08;;;;;;;;;;;5.30;99.90;;;;;;5048916;28;20402;-81
2022/02/21 03:17:37;;;;;;;;;;;3.50;99.90;;;;;;5029374;28;19940;-83
2022/02/21 03:20:08;;;;;;;;;;;5.30;99.90;;;;;;5045016;28;19925;-82
2022/02/21 03:22:37;;;;;;;;;;;5.40;99.90;;;;;;5034129;28;19925;-82
2022/02/21 03:25:05;;;;;;;;;;;5.30;99.90;;;;;;5029436;28;20004;-83
2022/02/21 03:27:38;;;;;;;;;;;6.00;99.90;;;;;;5028914;28;19929;-84
2022/02/21 03:30:07;;;;;;;;;;;5.20;99.90;;;;;;5013387;28;19929;-83
2022/02/21 03:32:36;;;;;;;;;;;5.20;99.90;;;;;;5030559;28;19940;-81
2022/02/21 03:35:05;;;;;;;;;;;5.20;99.90;;;;;;5030650;28;19925;-83
2022/02/21 03:37:35;;;;;;;;;;;5.30;99.90;;;;;;5047826;28;19933;-83
2022/02/21 03:40:04;;;;;;;;;;;5.30;99.90;;;;;;5012533;28;20266;-81
2022/02/21 03:42:32;;;;;;;;;;;5.10;99.90;;;;;;5048375;28;19940;-82
2022/02/21 03:45:00;;;;;;;;;;;5.30;99.90;;;;;;5048873;28;19933;-82
2022/02/21 03:47:29;;;;;;;;;;;3.80;99.90;;;;;;5036863;28;19948;-82
2022/02/21 03:49:57;;;;;;;;;;;5.20;99.90;;;;;;5047497;28;19937;-82
2022/02/21 03:52:27;;;;;;;;;;;5.30;99.90;;;;;;5028225;28;19925;-81
2022/02/21 03:54:56;;;;;;;;;;;5.20;99.90;;;;;;5029487;28;19924;-83
2022/02/21 03:57:23;;;;;;;;;;;5.20;99.90;;;;;;5047021;28;19929;-82
2022/02/21 03:59:51;;;;;;;;;;;5.30;99.90;;;;;;5013383;28;19939;-81
2022/02/21 04:02:19;;;;;;;;;;;5.20;99.90;;;;;;5048366;28;19932;-82
2022/02/21 04:04:48;;;;;;;;;;;5.10;99.90;;;;;;5029571;28;19933;-82
2022/02/21 04:07:17;;;;;;;;;;;5.20;99.90;;;;;;5024628;28;19931;-83
2022/02/21 04:09:45;;;;;;;;;;;5.10;99.90;;;;;;5030116;28;19929;-83
2022/02/21 04:12:13;;;;;;;;;;;5.10;99.90;;;;;;5030036;28;19925;-79
2022/02/21 04:14:42;;;;;;;;;;;5.40;99.90;;;;;;5048326;28;19929;-83
2022/02/21 04:17:09;;;;;;;;;;;5.10;99.90;;;;;;5030320;28;20115;-82
2022/02/21 04:19:38;;;;;;;;;;;5.10;99.90;;;;;;5031296;28;19924;-83
2022/02/21 04:22:11;;;;;;;;;;;5.10;99.90;;;;;;5032064;28;19925;-83
2022/02/21 04:24:39;;;;;;;;;;;5.20;99.90;;;;;;5025435;28;19929;-83
2022/02/21 04:27:07;;;;;;;;;;;5.20;99.90;;;;;;5046517;28;19929;-82
2022/02/21 04:29:38;;;;;;;;;;;5.10;99.90;;;;;;5031021;28;19925;-82
2022/02/21 04:32:07;;;;;;;;;;;5.00;99.90;;;;;;5030228;28;19931;-81
2022/02/21 04:34:38;;;;;;;;;;;5.10;99.90;;;;;;5028984;28;19939;-81
2022/02/21 04:37:06;;;;;;;;;;;5.10;99.90;;;;;;5046582;28;19925;-83
2022/02/21 04:39:35;;;;;;;;;;;5.20;99.90;;;;;;5029024;28;19932;-83
2022/02/21 04:42:04;;;;;;;;;;;5.20;99.90;;;;;;5029723;28;19925;-83
2022/02/21 04:44:33;;;;;;;;;;;5.30;99.90;;;;;;5012142;28;19929;-82
2022/02/21 04:47:01;;;;;;;;;;;5.20;99.90;;;;;;5046587;28;19929;-83
2022/02/21 04:49:30;;;;;;;;;;;5.20;99.90;;;;;;5029312;28;19926;-81
2022/02/21 04:51:58;;;;;;;;;;;5.20;99.90;;;;;;5029544;28;19940;-81
2022/02/21 04:54:26;;;;;;;;;;;5.20;99.90;;;;;;4995894;28;21092;-81
2022/02/21 04:56:54;;;;;;;;;;;4.00;99.90;;;;;;5027783;28;19929;-83
2022/02/21 04:59:22;;;;;;;;;;;5.30;99.90;;;;;;5025247;28;19929;-82
2022/02/21 05:01:50;;;;;;;;;;;3.50;99.90;;;;;;5026622;28;19939;-83
2022/02/21 05:04:18;;;;;;;;;;;5.30;99.90;;;;;;5011245;28;19925;-82
2022/02/21 05:06:50;;;;;;;;;;;5.20;99.90;;;;;;5023486;28;19929;-82
2022/02/21 05:09:19;;;;;;;;;;;5.80;99.90;;;;;;5007452;28;19929;-81
2022/02/21 05:11:47;;;;;;;;;;;5.20;99.90;;;;;;5007574;28;19929;-82
2022/02/21 05:14:15;;;;;;;;;;;5.20;99.90;;;;;;5026090;28;19925;-81
2022/02/21 05:16:45;;;;;;;;;;;5.30;99.90;;;;;;5008563;28;19952;-82
2022/02/21 05:19:14;;;;;;;;;;;5.40;99.90;;;;;;5010627;28;19925;-82
2022/02/21 05:21:43;;;;;;;;;;;5.40;99.90;;;;;;4991736;28;19925;-82
2022/02/21 05:24:11;;;;;;;;;;;5.80;99.90;;;;;;5025195;28;19929;-85
2022/02/21 05:26:40;;;;;;;;;;;5.40;99.90;;;;;;5026134;28;19926;-83
2022/02/21 05:29:07;;;;;;;;;;;5.40;99.90;;;;;;5026891;28;19933;-84
2022/02/21 05:31:39;;;;;;;;;;;5.40;99.90;;;;;;5011615;28;19929;-86
2022/02/21 05:34:09;;;;;;;;;;;5.40;99.90;;;;;;5027638;28;19933;-84
2022/02/21 05:36:37;;;;;;;;;;;5.50;99.90;;;;;;5029715;28;19936;-82
2022/02/21 05:39:06;;;;;;;;;;;5.50;99.90;;;;;;5027662;28;19932;-82
2022/02/21 05:41:36;;;;;;;;;;;5.60;99.90;;;;;;5026367;28;19940;-83
2022/02/21 05:44:05;;;;;;;;;;;5.60;99.90;;;;;;5025972;28;19925;-83
2022/02/21 05:46:35;;;;;;;;;;;5.70;99.90;;;;;;5026226;28;19925;-83
2022/02/21 05:49:03;;;;;;;;;;;5.60;99.90;;;;;;5030900;28;19925;-83
2022/02/21 05:51:32;;;;;;;;;;;5.60;99.90;;;;;;5023168;28;19936;-83
2022/02/21 05:54:00;;;;;;;;;;;5.60;99.90;;;;;;5023598;28;19926;-82
2022/02/21 05:56:28;;;;;;;;;;;5.60;99.90;;;;;;5024798;28;19910;-82
2022/02/21 05:58:56;;;;;;;;;;;5.70;99.90;;;;;;5039970;28;19925;-82
2022/02/21 06:01:25;;;;;;;;;;;5.70;99.90;;;;;;5045511;28;19931;-84
2022/02/21 06:03:54;;;;;;;;;;;5.90;99.90;;;;;;5028450;28;19929;-82
2022/02/21 06:06:22;;;;;;;;;;;5.70;99.90;;;;;;5020419;28;19944;-85
2022/02/21 06:08:50;;;;;;;;;;;5.80;99.90;;;;;;5027142;28;20305;-81
2022/02/21 06:11:18;;;;;;;;;;;5.90;99.90;;;;;;5042491;28;19933;-82
2022/02/21 06:13:48;;;;;;;;;;;5.80;99.90;;;;;;5027622;28;19925;-83
2022/02/21 06:16:16;;;;;;;;;;;5.40;99.90;;;;;;5042135;28;19937;-82
2022/02/21 06:18:44;;;;;;;;;;;5.90;99.90;;;;;;5043970;28;19933;-81
2022/02/21 06:21:13;;;;;;;;;;;6.00;99.90;;;;;;5043895;28;19929;-83
2022/02/21 06:23:42;;;;;;;;;;;6.00;99.90;;;;;;5045078;28;19925;-83
2022/02/21 06:26:10;;;;;;;;;;;5.90;99.90;;;;;;4998717;28;19928;-82
2022/02/21 06:28:39;;;;;;;;;;;6.10;99.90;;;;;;5049415;28;19936;-82
2022/02/21 06:31:09;;;;;;;;;;;5.60;99.90;;;;;;5032093;28;19940;-82
2022/02/21 06:33:39;;;;;;;;;;;6.00;99.90;;;;;;5031446;28;20687;-82
2022/02/21 06:36:07;;;;;;;;;;;4.30;99.90;;;;;;5049827;28;20330;-83
2022/02/21 06:38:37;;;;;;;;;;;6.90;99.90;;;;;;5014794;28;19925;-83
2022/02/21 06:41:08;;;;;;;;;;;6.20;99.90;;;;;;5033570;28;19955;-82
2022/02/21 06:43:37;;;;;;;;;;;6.20;99.90;;;;;;5050619;28;19925;-83
2022/02/21 06:46:05;;;;;;;;;;;6.30;99.90;;;;;;5017052;28;19929;-84
2022/02/21 06:48:33;;;;;;;;;;;6.30;99.90;;;;;;5031383;28;19929;-80
2022/02/21 06:51:04;;;;;;;;;;;6.60;99.90;;;;;;5016260;28;20361;-83
2022/02/21 06:53:34;;;;;;;;;;;6.30;99.90;;;;;;5029551;28;19929;-81
2022/02/21 06:56:02;;;;;;;;;;;6.40;99.90;;;;;;5035164;28;19932;-82
2022/02/21 06:58:30;;;;;;;;;;;6.80;99.90;;;;;;5048314;28;19925;-82
2022/02/21 07:01:03;;;;;;;;;;;6.40;99.90;;;;;;5050526;28;19931;-82
2022/02/21 07:03:31;;;;;;;;;;;6.80;99.90;;;;;;5050955;28;19931;-82
2022/02/21 07:06:04;;;;;;;;;;;6.60;99.90;;;;;;5050394;28;19936;-82
2022/02/21 07:08:34;;;;;;;;;;;6.60;99.90;;;;;;5031911;28;19929;-85
2022/02/21 07:11:05;;;;;;;;;;;5.10;99.90;;;;;;5016696;28;19929;-81
2022/02/21 07:13:34;;;;;;;;;;;6.70;99.90;;;;;;5017494;28;19932;-83
2022/02/21 07:16:02;;;;;;;;;;;7.00;99.90;;;;;;5031409;28;19929;-85
2022/02/21 07:18:31;;;;;;;;;;;6.80;99.90;;;;;;5016247;28;19956;-82
2022/02/21 07:20:59;;;;;;;;;;;6.80;99.90;;;;;;5048872;28;19940;-85
2022/02/21 07:23:30;;;;;;;;;;;7.10;99.90;;;;;;5030356;28;19925;-82
2022/02/21 07:26:00;;;;;;;;;;;6.50;99.90;;;;;;5020336;28;19929;-82
2022/02/21 07:28:29;;;;;;;;;;;7.20;99.90;;;;;;5000544;28;20367;-83
2022/02/21 07:30:57;;;;;;;;;;;7.10;99.90;;;;;;5012367;28;19925;-81
2022/02/21 07:33:26;;;;;;;;;;;7.20;99.90;;;;;;5041691;28;19928;-83
2022/02/21 07:35:58;;;;;;;;;;;7.30;99.90;;;;;;5031960;28;19925;-87
2022/02/21 07:38:26;;;;;;;;;;;7.20;99.90;;;;;;5021322;28;19925;-84
2022/02/21 07:40:55;;;;;;;;;;;7.30;99.90;;;;;;5013165;28;19930;-82
2022/02/21 07:43:25;;;;;;;;;;;7.30;99.90;;;;;;5014377;28;19926;-85
2022/02/21 07:45:57;;;;;;;;;;;7.60;99.90;;;;;;5048815;28;19925;-85
2022/02/21 07:48:30;;;;;;;;;;;7.40;99.90;;;;;;5054310;28;19943;-85
2022/02/21 07:51:14;;;;;;;;;;;7.30;99.90;;;;;;5035604;28;19931;-83
2022/02/21 07:53:48;;;;;;;;;;;7.60;99.90;;;;;;5050499;28;20346;-82
2022/02/21 07:56:24;;;;;;;;;;;6.10;99.90;;;;;;5048471;28;19924;-82
2022/02/21 07:58:53;;;;;;;;;;;7.50;99.90;;;;;;5054788;28;19925;-83
2022/02/21 08:01:32;;;;;;;;;;;;;;;;;;;;;
2022/02/21 08:04:32;;;;;;;;;;;7.40;99.90;;;;;;5005826;28;19931;-84
2022/02/21 08:07:02;;;;;;;;;;;7.20;99.90;;;;;;5027066;28;19935;-84
2022/02/21 08:09:30;;;;;;;;;;;7.90;99.90;;;;;;5012587;28;19926;-82
2022/02/21 08:12:10;;;;;;;;;;;7.80;99.90;;;;;;5027818;28;20214;-82
2022/02/21 08:14:50;;;;;;;;;;;7.90;99.90;;;;;;5027539;28;19933;-86
2022/02/21 08:17:26;;;;;;;;;;;7.90;99.90;;;;;;5023568;28;19932;-85
2022/02/21 08:20:05;;;;;;;;;;;8.10;99.90;;;;;;4994135;28;19932;-83
2022/02/21 08:22:36;;;;;;;;;;;7.20;99.90;;;;;;5001958;28;19932;-85
2022/02/21 08:25:07;;;;;;;;;;;7.90;99.90;;;;;;5009924;28;19929;-85
2022/02/21 08:28:02;;;;;;;;;;;7.90;99.90;;;;;;4971134;28;19936;-82
2022/02/21 08:30:59;;;;;;;;;;;8.10;99.90;;;;;;5007575;28;19921;-82
2022/02/21 08:33:28;;;;;;;;;;;8.20;99.90;;;;;;5010794;28;19931;-83
2022/02/21 08:35:57;;;;;;;;;;;8.00;99.90;;;;;;5029227;28;19945;-84
2022/02/21 08:38:29;;;;;;;;;;;8.10;99.90;;;;;;5044202;28;19926;-83
2022/02/21 08:41:04;;;;;;;;;;;8.10;99.90;;;;;;5029806;28;19939;-82
2022/02/21 08:43:33;;;;;;;;;;;8.40;99.90;;;;;;4996623;28;19930;-82
2022/02/21 08:46:00;;;;;;;;;;;8.20;99.90;;;;;;5008058;28;19926;-83
2022/02/21 08:48:58;;;;;;;;;;;8.30;99.90;;;;;;5010623;28;20524;-81
2022/02/21 08:51:26;;;;;;;;;;;8.50;99.90;;;;;;5026294;28;19932;-83
2022/02/21 08:53:59;;;;;;;;;;;8.40;99.90;;;;;;5028798;28;19930;-85
2022/02/21 08:56:35;;;;;;;;;;;8.60;99.90;;;;;;5027443;28;20369;-81
2022/02/21 08:59:04;;;;;;;;;;;8.60;99.90;;;;;;5045376;28;20311;-82
2022/02/21 09:01:33;;;;;;;;;;;8.50;99.90;;;;;;5048150;28;19925;-79
2022/02/21 09:04:04;;;;;;;;;;;8.60;99.90;;;;;;5029251;28;19929;-84
2022/02/21 09:06:32;;;;;;;;;;;8.80;99.90;;;;;;5026729;28;19936;-81
2022/02/21 09:09:00;;;;;;;;;;;7.10;99.90;;;;;;5026145;28;19929;-79
2022/02/21 09:11:29;;;;;;;;;;;8.80;99.90;;;;;;5031230;28;19926;-81
2022/02/21 09:13:59;;;;;;;;;;;8.80;99.90;;;;;;5044375;28;19935;-84
2022/02/21 09:16:28;;;;;;;;;;;9.50;99.90;;;;;;5026760;28;19935;-82
2022/02/21 09:18:57;;;;;;;;;;;8.90;99.90;;;;;;5043243;28;19933;-80
2022/02/21 09:21:25;;;;;;;;;;;8.80;99.90;;;;;;5045411;28;19931;-82
2022/02/21 09:24:06;;;;;;;;;;;9.00;99.90;;;;;;5045632;28;20101;-84
2022/02/21 09:26:49;;;;;;;;;;;9.20;99.90;;;;;;5044548;28;19929;-80
2022/02/21 09:29:17;;;;;;;;;;;9.00;99.90;;;;;;5012686;28;19936;-81
2022/02/21 09:31:46;;;;;;;;;;;9.00;99.90;;;;;;5044336;28;19928;-86
2022/02/21 09:34:15;;;;;;;;;;;9.10;99.90;;;;;;5042435;28;19933;-82
2022/02/21 09:36:44;;;;;;;;;;;9.80;99.90;;;;;;5044863;28;19929;-82
2022/02/21 09:39:13;;;;;;;;;;;9.20;99.90;;;;;;5044341;28;19925;-79
2022/02/21 09:41:47;;;;;;;;;;;9.30;99.90;;;;;;5013437;28;19925;-82
2022/02/21 09:44:18;;;;;;;;;;;9.30;99.90;;;;;;5046837;28;19925;-86
2022/02/21 09:46:48;;;;;;;;;;;9.30;99.90;;;;;;5012765;28;19925;-80
2022/02/21 09:49:18;;;;;;;;;;;9.90;99.90;;;;;;5044446;28;19926;-81
2022/02/21 09:51:48;;;;;;;;;;;9.50;99.90;;;;;;5029111;28;19929;-82
2022/02/21 09:54:16;;;;;;;;;;;9.50;99.90;;;;;;5028436;28;19932;-83
2022/02/21 09:56:48;;;;;;;;;;;9.60;99.90;;;;;;5027837;28;19951;-82
2022/02/21 09:59:16;;;;;;;;;;;9.10;99.90;;;;;;4993884;28;19929;-84
2022/02/21 10:01:44;;;;;;;;;;;9.20;99.90;;;;;;4981770;28;19946;-81
2022/02/21 10:04:24;;;;;;;;;;;9.50;99.90;;;;;;5021538;28;19926;-80
2022/02/21 10:06:57;;;;;;;;;;;9.80;99.90;;;;;;5025251;28;19929;-80
2022/02/21 10:09:30;;;;;;;;;;;9.90;99.90;;;;;;5007431;28;19925;-81
2022/02/21 10:11:59;;;;;;;;;;;10.00;99.90;;;;;;5002841;28;19926;-82
2022/02/21 10:14:28;;;;;;;;;;;9.80;99.90;;;;;;5007536;28;19948;-81
2022/02/21 10:16:58;;;;;;;;;;;10.00;99.90;;;;;;5007082;28;19936;-80
2022/02/21 10:19:29;;;;;;;;;;;10.50;99.90;;;;;;4987594;28;20504;-81
2022/02/21 10:22:02;;;;;;;;;;;10.00;99.90;;;;;;5006968;28;19932;-80
2022/02/21 10:24:46;;;;;;;;;;;10.00;99.90;;;;;;5007746;28;19947;-81
2022/02/21 10:27:22;;;;;;;;;;;9.50;99.90;;;;;;5015776;28;19925;-81
2022/02/21 10:30:00;;;;;;;;;;;10.00;99.90;;;;;;5023938;28;19925;-82
2022/02/21 10:32:50;;;;;;;;;;;10.00;99.90;;;;;;5024907;28;19936;-80
2022/02/21 10:35:21;;;;;;;;;;;10.10;99.90;;;;;;5019151;28;19940;-82
2022/02/21 10:38:00;;;;;;;;;;;10.00;99.90;;;;;;5007691;28;19925;-83
2022/02/21 10:40:30;;;;;;;;;;;9.90;99.90;;;;;;5012929;28;19940;-81
2022/02/21 10:43:03;;;;;;;;;;;9.20;99.90;;;;;;5020263;28;19930;-82
2022/02/21 10:45:32;;;;;;;;;;;10.00;99.90;;;;;;5020248;28;19934;-79
2022/02/21 10:48:08;;;;;;;;;;;9.90;99.90;;;;;;5020137;28;19934;-80
2022/02/21 10:50:52;;;;;;;;;;;10.00;99.90;;;;;;4987674;28;19936;-80
2022/02/21 10:53:23;;;;;;;;;;;9.90;99.90;;;;;;5016928;28;19943;-80
2022/02/21 10:56:02;;;;;;;;;;;10.00;99.90;;;;;;5007115;28;19933;-90
2022/02/21 10:58:42;;;;;;;;;;;9.40;99.90;;;;;;5022800;28;20246;-84
2022/02/21 11:01:15;;;;;;;;;;;10.00;99.90;;;;;;4997580;28;19925;-85
2022/02/21 11:03:46;;;;;;;;;;;10.40;99.90;;;;;;5032842;28;19926;-86
2022/02/21 11:06:16;;;;;;;;;;;10.40;99.90;;;;;;5020041;28;19925;-81
2022/02/21 11:08:46;;;;;;;;;;;10.20;99.90;;;;;;5018954;28;19937;-84
2022/02/21 11:11:14;;;;;;;;;;;9.70;99.90;;;;;;5019540;28;19933;-85
2022/02/21 11:13:44;;;;;;;;;;;10.40;99.90;;;;;;5036588;28;19933;-83
2022/02/21 11:16:13;;;;;;;;;;;10.50;99.90;;;;;;5025400;28;19962;-83
2022/02/21 11:18:43;;;;;;;;;;;10.50;99.90;;;;;;5036098;28;19933;-81
2022/02/21 11:21:14;;;;;;;;;;;10.50;99.90;;;;;;5032498;28;19933;-82
2022/02/21 11:23:46;;;;;;;;;;;10.70;99.90;;;;;;5038305;28;19933;-83
2022/02/21 11:26:30;;;;;;;;;;;10.60;99.90;;;;;;5015884;28;19933;-82
2022/02/21 11:28:58;;;;;;;;;;;10.10;99.90;;;;;;5033141;28;19933;-82
2022/02/21 11:31:33;;;;;;;;;;;10.60;99.90;;;;;;5017347;28;19929;-80
2022/02/21 11:34:09;;;;;;;;;;;10.60;99.90;;;;;;5014059;28;19929;-82
2022/02/21 11:36:47;;;;;;;;;;;9.80;99.90;;;;;;5035810;28;19921;-81
2022/02/21 11:39:33;;;;;;;;;;;10.60;99.90;;;;;;5004040;28;19932;-82
2022/02/21 11:42:17;;;;;;;;;;;10.60;99.90;;;;;;5033513;28;20217;-81
2022/02/21 11:44:53;;;;;;;;;;;10.60;99.90;;;;;;5035485;28;19932;-81
2022/02/21 11:47:46;;;;;;;;;;;10.70;99.90;;;;;;5033478;28;19933;-82
2022/02/21 11:50:17;;;;;;;;;;;10.90;99.90;;;;;;5020517;28;19921;-80
2022/02/21 11:52:50;;;;;;;;;;;10.70;99.90;;;;;;5034730;28;21168;-81
2022/02/21 11:55:29;;;;;;;;;;;10.60;99.90;;;;;;5033438;28;19932;-87
2022/02/21 11:58:14;;;;;;;;;;;10.70;99.90;;;;;;5037099;28;19933;-80
2022/02/21 12:00:49;;;;;;;;;;;10.60;99.90;;;;;;5017972;28;19929;-81
2022/02/21 12:03:21;;;;;;;;;;;10.70;99.90;;;;;;5033465;28;19929;-79
2022/02/21 12:06:04;;;;;;;;;;;10.90;99.90;;;;;;5036107;28;20367;-81
2022/02/21 12:08:53;;;;;;;;;;;10.90;99.90;;;;;;5014137;28;19940;-81
2022/02/21 12:11:22;;;;;;;;;;;10.80;99.90;;;;;;5014563;28;19941;-81
2022/02/21 12:13:55;;;;;;;;;;;10.80;99.90;;;;;;5015942;28;19944;-82
2022/02/21 12:16:27;;;;;;;;;;;10.80;99.90;;;;;;5020332;28;19941;-84
2022/02/21 12:19:07;;;;;;;;;;;10.90;99.90;;;;;;5032263;28;19925;-85
2022/02/21 12:21:40;;;;;;;;;;;10.80;99.90;;;;;;5021837;28;20399;-82
2022/02/21 12:24:09;;;;;;;;;;;10.80;99.90;;;;;;5018359;28;20089;-83
2022/02/21 12:26:40;;;;;;;;;;;10.90;99.90;;;;;;5034744;28;20024;-82
2022/02/21 12:29:17;;;;;;;;;;;10.90;99.90;;;;;;5037096;28;19929;-87
2022/02/21 12:32:12;;;;;;;;;;;10.90;99.90;;;;;;5021981;28;19936;-82
2022/02/21 12:34:43;;;;;;;;;;;11.00;99.90;;;;;;5018283;28;19925;-82
2022/02/21 12:37:13;;;;;;;;;;;11.00;99.90;;;;;;5038056;28;19943;-82
2022/02/21 12:39:51;;;;;;;;;;;11.00;99.90;;;;;;5038371;28;19933;-82
2022/02/21 12:42:39;;;;;;;;;;;10.90;99.90;;;;;;5036070;28;19996;-80
2022/02/21 12:45:17;;;;;;;;;;;10.90;99.90;;;;;;5036983;28;19932;-82
2022/02/21 12:47:53;;;;;;;;;;;10.90;99.90;;;;;;5003783;28;20658;-82
2022/02/21 12:50:25;;;;;;;;;;;10.70;99.90;;;;;;5034750;28;19925;-83
2022/02/21 12:53:02;;;;;;;;;;;10.70;99.90;;;;;;5036673;28;19939;-85
2022/02/21 12:55:56;;;;;;;;;;;10.70;99.90;;;;;;5034866;28;19925;-83
2022/02/21 12:58:58;;;;;;;;;;;10.70;99.90;;;;;;5031243;28;19933;-84
2022/02/21 13:01:31;;;;;;;;;;;11.10;99.90;;;;;;4995786;28;19932;-83
2022/02/21 13:04:11;;;;;;;;;;;10.30;99.90;;;;;;5031034;28;19921;-81
2022/02/21 13:10:19;;;;;;;;;;;10.40;99.90;;;;;;5041034;28;20369;-83
2022/02/21 13:12:49;;;;;;;;;;;11.00;99.90;;;;;;4994606;28;19925;-82
2022/02/21 13:15:19;;;;;;;;;;;11.30;99.90;;;;;;5025105;28;19933;-81
2022/02/21 13:18:38;;;;;;;;;;;11.30;99.90;;;;;;5041843;28;19925;-84
2022/02/21 13:21:43;;;;;;;;;;;11.40;99.90;;;;;;4959409;29;19926;-82
2022/02/21 13:24:34;;;;;;;;;;;11.40;99.90;;;;;;4940719;29;19931;-84
2022/02/21 13:27:50;;;;;;;;;;;;;;;;;;;;;
2022/02/21 13:30:33;;;;;;;;;;;11.30;99.90;;;;;;4959034;28;19934;-85
2022/02/21 13:33:48;;;;;;;;;;;11.40;99.90;;;;;;4962352;29;21075;-86
2022/02/21 13:36:40;;;;;;;;;;;11.50;99.90;;;;;;4953263;29;19942;-85
2022/02/21 13:40:19;;;;;;;;;;;11.50;99.90;;;;;;5010808;28;19929;-82
2022/02/21 13:42:58;;;;;;;;;;;11.60;99.90;;;;;;5043101;28;20397;-85
2022/02/21 13:46:05;;;;;;;;;;;11.50;99.90;;;;;;5040641;28;19933;-86
2022/02/21 13:48:48;;;;;;;;;;;10.30;99.50;;;;;;5040842;28;19932;-84
2022/02/21 13:52:15;;;;;;;;;;;11.40;99.90;;;;;;5022323;28;19924;-84
2022/02/21 13:56:13;;;;;;;;;;;;;;;;;;;;;
2022/02/21 13:59:12;;;;;;;;;;;11.60;99.90;;;;;;4940014;29;19940;-85
2022/02/21 14:02:33;;;;;;;;;;;11.30;99.90;;;;;;4896306;29;20429;-86
2022/02/21 14:05:58;;;;;;;;;;;;;;;;;;;;;
2022/02/21 14:09:47;;;;;;;;;;;12.40;99.90;;;;;;4845600;29;19935;-85
2022/02/21 14:13:05;;;;;;;;;;;9.70;99.90;;;;;;4797821;29;20328;-84
2022/02/21 14:16:23;;;;;;;;;;;;;;;;;;;;;
2022/02/21 14:19:21;;;;;;;;;;;11.10;99.90;;;;;;4861424;29;19936;-84
2022/02/21 14:26:33;;;;;;;;;;;11.50;99.90;;;;;;4950424;28;19946;-87
2022/02/21 14:29:40;;;;;;;;;;;11.50;99.90;;;;;;4951744;28;19937;-85
2022/02/21 14:32:22;;;;;;;;;;;11.70;99.90;;;;;;4963699;28;19966;-89
2022/02/21 14:35:18;;;;;;;;;;;;;;;;;;;;;
2022/02/21 14:38:50;;;;;;;;;;;11.20;99.90;;;;;;4946728;29;19935;-83
2022/02/21 14:41:36;;;;;;;;;;;10.90;99.90;;;;;;4948212;28;19935;-85
2022/02/21 14:44:32;;;;;;;;;;;11.00;99.90;;;;;;5024307;28;19933;-85
2022/02/21 14:47:42;;;;;;;;;;;11.00;99.90;;;;;;5038013;28;19941;-84
2022/02/21 14:50:22;;;;;;;;;;;12.70;99.90;;;;;;5030375;28;20606;-85
2022/02/21 14:53:00;;;;;;;;;;;11.90;99.90;;;;;;5042797;28;19932;-84
2022/02/21 14:55:40;;;;;;;;;;;11.40;99.90;;;;;;5028476;28;20274;-85
2022/02/21 14:58:11;;;;;;;;;;;9.90;99.90;;;;;;5043349;28;19935;-84
2022/02/21 15:00:57;;;;;;;;;;;13.20;99.90;;;;;;5029388;28;19936;-84
2022/02/21 15:03:28;;;;;;;;;;;11.20;99.90;;;;;;5049418;28;19937;-86
2022/02/21 15:06:21;;;;;;;;;;;11.20;99.90;;;;;;5044692;28;19929;-83
2022/02/21 15:09:03;;;;;;;;;;;11.10;99.90;;;;;;5027591;28;19944;-85
2022/02/21 15:11:32;;;;;;;;;;;11.10;99.90;;;;;;5049024;28;19929;-84
2022/02/21 15:14:11;;;;;;;;;;;10.90;99.90;;;;;;5043611;28;19925;-86
2022/02/21 15:16:48;;;;;;;;;;;11.00;99.90;;;;;;5027929;28;19925;-85
2022/02/21 15:19:18;;;;;;;;;;;11.00;99.90;;;;;;5044121;28;19952;-83
2022/02/21 15:22:01;;;;;;;;;;;11.00;99.90;;;;;;5028460;28;19925;-83